Terminal Aerodrome Forecast
Issued by NWS Mt. Holly, NJ

Home | Current Version | Previous Version | Text Only | Print | Product List | Glossary On
Versions: 1 2 3 4 5 6 7 8 9 10 11 12 13 14 15 16 17 18 19 20
000
FTUS41 KPHI 012325
TAFTTN
TAF
KTTN 012325Z 0200/0224 09007KT 3SM -DZ BR OVC005
     FM020400 05006KT 1SM -SHRADZ BR OVC002
     FM021300 VRB03KT 5SM -SHRA BR OVC004
     FM021800 17004KT 5SM BR OVC007
     FM022200 18005KT P6SM OVC015=

USA.gov is the U.S. government's official web portal to all federal, state and local government web resources and services.